Time;durP1;ratioP1;P1;durP2;ratioP2;P2;SDS_P1;SDS_P2;PMS_P1;PMS_P2;Temp;Humidity;BMP_temperature;BMP_pressure;BME280_temperature;BME280_humidity;BME280_pressure;Samples;Min_cycle;Max_cycle;Signal;HPM_P1;HPM_P2
2021/12/03 00:01:39;;;;;;;13.20;5.78;;;1.20;99.90;;;;;;4989542;28;20031;-70
2021/12/03 00:04:06;;;;;;;13.80;6.90;;;1.20;99.90;;;;;;4973068;28;20088;-71
2021/12/03 00:06:35;;;;;;;12.45;7.38;;;1.20;99.90;;;;;;4988181;28;20054;-71
2021/12/03 00:09:02;;;;;;;17.00;8.88;;;1.20;99.90;;;;;;4990519;28;20753;-72
2021/12/03 00:11:28;;;;;;;30.23;11.88;;;1.20;99.90;;;;;;4988609;28;20512;-72
2021/12/03 00:13:53;;;;;;;15.23;9.57;;;1.20;99.90;;;;;;4987765;28;20045;-71
2021/12/03 00:16:19;;;;;;;16.63;7.93;;;1.30;99.90;;;;;;4990277;28;20049;-71
2021/12/03 00:18:46;;;;;;;12.82;7.55;;;1.30;99.90;;;;;;4975012;28;20646;-72
2021/12/03 00:21:12;;;;;;;13.35;6.38;;;1.30;99.90;;;;;;4992494;28;20168;-73
2021/12/03 00:23:39;;;;;;;12.07;6.22;;;1.40;99.90;;;;;;4992419;28;20397;-71
2021/12/03 00:26:07;;;;;;;9.43;5.28;;;1.40;99.90;;;;;;4991725;28;20469;-71
2021/12/03 00:28:34;;;;;;;10.57;5.15;;;1.40;99.90;;;;;;4990812;28;20416;-72
2021/12/03 00:31:03;;;;;;;12.30;5.35;;;1.40;99.90;;;;;;4986018;28;20504;-72
2021/12/03 00:33:30;;;;;;;11.95;4.90;;;1.40;99.90;;;;;;4985324;28;20492;-72
2021/12/03 00:35:56;;;;;;;8.90;4.68;;;1.50;99.90;;;;;;4985378;28;20125;-72
2021/12/03 00:38:22;;;;;;;10.23;4.78;;;1.50;99.90;;;;;;4988634;28;20042;-72
2021/12/03 00:40:48;;;;;;;11.30;4.60;;;1.40;99.90;;;;;;4989279;28;20026;-73
2021/12/03 00:43:14;;;;;;;12.27;5.35;;;1.40;99.90;;;;;;4983910;28;20042;-72
2021/12/03 00:45:42;;;;;;;10.15;5.00;;;1.40;99.90;;;;;;4988191;28;20041;-72
2021/12/03 00:48:08;;;;;;;14.68;7.13;;;1.30;99.90;;;;;;4985842;28;20047;-72
2021/12/03 00:50:34;;;;;;;15.43;7.40;;;1.30;99.90;;;;;;4987770;28;20053;-72
2021/12/03 00:53:01;;;;;;;12.80;8.35;;;1.40;99.90;;;;;;4986176;28;20054;-72
2021/12/03 00:55:31;;;;;;;16.20;9.73;;;1.30;99.90;;;;;;4986392;28;20629;-72
2021/12/03 00:57:57;;;;;;;18.60;10.25;;;1.30;99.90;;;;;;4985824;28;20474;-72
2021/12/03 01:00:26;;;;;;;19.20;9.48;;;1.30;99.90;;;;;;4989039;28;20037;-73
2021/12/03 01:02:55;;;;;;;21.08;11.05;;;1.30;99.90;;;;;;4986673;28;20576;-72
2021/12/03 01:05:21;;;;;;;17.42;11.43;;;1.30;99.90;;;;;;4987113;28;20026;-72
2021/12/03 01:07:46;;;;;;;18.40;11.27;;;1.30;99.90;;;;;;4988741;28;20396;-72
2021/12/03 01:10:12;;;;;;;20.98;11.32;;;1.20;99.90;;;;;;4986558;28;20053;-72
2021/12/03 01:12:38;;;;;;;20.13;11.50;;;1.30;99.90;;;;;;4986845;28;20125;-73
2021/12/03 01:15:06;;;;;;;17.48;12.13;;;1.20;99.90;;;;;;5001323;28;20046;-73
2021/12/03 01:17:32;;;;;;;16.83;11.88;;;1.20;99.90;;;;;;4987095;28;20070;-72
2021/12/03 01:19:59;;;;;;;20.25;13.50;;;1.20;99.90;;;;;;4983972;28;20481;-72
2021/12/03 01:22:25;;;;;;;19.75;13.75;;;1.20;99.90;;;;;;4986077;28;20393;-72
2021/12/03 01:24:51;;;;;;;25.08;14.95;;;1.20;99.90;;;;;;5003971;28;20038;-72
2021/12/03 01:27:17;;;;;;;25.27;15.38;;;1.20;99.90;;;;;;4986112;28;20409;-72
2021/12/03 01:29:42;;;;;;;23.95;15.82;;;1.20;99.90;;;;;;4986896;28;20042;-73
2021/12/03 01:32:08;;;;;;;24.98;16.27;;;1.20;99.90;;;;;;4986482;28;20038;-72
2021/12/03 01:34:34;;;;;;;25.05;17.60;;;1.20;99.90;;;;;;4985537;28;20163;-72
2021/12/03 01:37:00;;;;;;;25.58;17.02;;;1.20;99.90;;;;;;4985346;28;20163;-72
2021/12/03 01:39:25;;;;;;;24.27;18.70;;;1.20;99.90;;;;;;4984525;28;20046;-72
2021/12/03 01:41:51;;;;;;;29.80;19.48;;;1.20;99.90;;;;;;4981037;28;20050;-72
2021/12/03 01:44:16;;;;;;;32.10;20.23;;;1.10;99.90;;;;;;4987799;28;20472;-72
2021/12/03 01:46:42;;;;;;;29.95;20.60;;;1.10;99.90;;;;;;4988007;28;20041;-72
2021/12/03 01:49:11;;;;;;;27.05;21.10;;;1.20;99.90;;;;;;4987740;28;20077;-72
2021/12/03 01:51:37;;;;;;;31.05;21.02;;;1.20;99.90;;;;;;4987223;28;20030;-72
2021/12/03 01:54:03;;;;;;;34.60;21.73;;;1.20;99.90;;;;;;4986628;28;20489;-72
2021/12/03 01:56:29;;;;;;;31.48;20.75;;;1.10;99.90;;;;;;4986872;28;20042;-72
2021/12/03 01:58:54;;;;;;;27.33;21.98;;;1.20;99.90;;;;;;4985440;28;20045;-72
2021/12/03 02:01:24;;;;;;;35.58;22.23;;;1.20;99.90;;;;;;4984234;28;20165;-72
2021/12/03 02:03:53;;;;;;;29.80;22.30;;;1.20;99.90;;;;;;4983546;28;20042;-72
2021/12/03 02:06:20;;;;;;;30.60;22.23;;;1.20;99.90;;;;;;4983228;28;20046;-72
2021/12/03 02:08:46;;;;;;;36.70;21.77;;;1.20;99.90;;;;;;4986149;28;20095;-72
2021/12/03 02:11:13;;;;;;;30.98;21.02;;;1.20;99.90;;;;;;4986133;28;20050;-72
2021/12/03 02:13:39;;;;;;;31.58;23.08;;;1.20;99.90;;;;;;4986302;28;20038;-72
2021/12/03 02:16:06;;;;;;;32.17;22.27;;;1.20;99.90;;;;;;4985248;28;22146;-72
2021/12/03 02:18:32;;;;;;;31.67;21.98;;;1.10;99.90;;;;;;4983208;28;20060;-72
2021/12/03 02:21:00;;;;;;;29.30;21.38;;;1.20;99.90;;;;;;4986158;28;20042;-72
2021/12/03 02:23:28;;;;;;;32.75;22.40;;;1.20;99.90;;;;;;4986178;28;20034;-72
2021/12/03 02:25:55;;;;;;;34.22;20.65;;;1.20;99.90;;;;;;4983418;28;20105;-72
2021/12/03 02:28:23;;;;;;;34.30;21.70;;;1.20;99.90;;;;;;4983029;28;20480;-72
2021/12/03 02:30:49;;;;;;;33.03;21.30;;;1.20;99.90;;;;;;4986494;28;20535;-72
2021/12/03 02:33:15;;;;;;;27.30;20.23;;;1.10;99.90;;;;;;4983577;28;20121;-72
2021/12/03 02:35:43;;;;;;;30.30;20.52;;;1.10;99.90;;;;;;4983556;28;20401;-72
2021/12/03 02:38:10;;;;;;;31.67;21.42;;;1.10;99.90;;;;;;4986144;28;20489;-72
2021/12/03 02:40:36;;;;;;;27.88;20.25;;;1.20;99.90;;;;;;4990165;28;20409;-72
2021/12/03 02:43:03;;;;;;;31.02;20.73;;;1.20;99.90;;;;;;4984384;28;20565;-72
2021/12/03 02:45:29;;;;;;;28.00;20.48;;;1.20;99.90;;;;;;4984942;28;20038;-72
2021/12/03 02:47:58;;;;;;;26.55;20.23;;;1.20;99.90;;;;;;4985093;28;20604;-72
2021/12/03 02:50:24;;;;;;;24.95;19.05;;;1.20;99.90;;;;;;4982961;28;21046;-72
2021/12/03 02:52:50;;;;;;;26.40;19.73;;;1.10;99.90;;;;;;4983608;28;20046;-72
2021/12/03 02:55:16;;;;;;;29.45;20.65;;;1.10;99.90;;;;;;4984938;28;20077;-72
2021/12/03 02:57:42;;;;;;;28.70;18.90;;;1.10;99.90;;;;;;4985539;28;20078;-72
2021/12/03 03:00:12;;;;;;;25.15;19.13;;;1.10;99.90;;;;;;4986153;28;20448;-72
2021/12/03 03:02:40;;;;;;;30.85;20.13;;;1.10;99.90;;;;;;4985187;28;20069;-72
2021/12/03 03:05:07;;;;;;;27.17;20.80;;;1.10;99.90;;;;;;4985567;28;20108;-72
2021/12/03 03:07:33;;;;;;;30.65;20.58;;;1.10;99.90;;;;;;4984233;28;20088;-72
2021/12/03 03:09:58;;;;;;;26.67;20.15;;;1.10;99.90;;;;;;4984288;28;20039;-72
2021/12/03 03:12:25;;;;;;;26.65;20.20;;;1.00;99.90;;;;;;4984465;28;20041;-72
2021/12/03 03:14:56;;;;;;;26.77;19.58;;;1.10;99.90;;;;;;4999156;28;20533;-72
2021/12/03 03:17:24;;;;;;;28.70;20.73;;;1.00;99.90;;;;;;4985507;28;20046;-72
2021/12/03 03:19:50;;;;;;;26.42;19.95;;;1.00;99.90;;;;;;4983642;28;21579;-72
2021/12/03 03:22:16;;;;;;;25.85;20.08;;;1.00;99.90;;;;;;4986039;28;20043;-72
2021/12/03 03:24:43;;;;;;;28.30;19.85;;;1.00;99.90;;;;;;5000916;28;20038;-72
2021/12/03 03:27:08;;;;;;;27.50;19.58;;;1.00;99.90;;;;;;4966634;28;20046;-71
2021/12/03 03:29:34;;;;;;;28.77;20.48;;;1.00;99.90;;;;;;4985493;28;20053;-72
2021/12/03 03:32:01;;;;;;;26.75;19.80;;;1.00;99.90;;;;;;4984684;28;20074;-72
2021/12/03 03:34:27;;;;;;;27.50;20.10;;;1.00;99.90;;;;;;4986029;28;20096;-72
2021/12/03 03:36:52;;;;;;;25.52;20.42;;;1.00;99.90;;;;;;4982243;28;20649;-72
2021/12/03 03:39:20;;;;;;;30.25;20.10;;;1.00;99.90;;;;;;4981767;28;20129;-72
2021/12/03 03:41:45;;;;;;;26.25;19.88;;;1.00;99.90;;;;;;4981752;28;20432;-72
2021/12/03 03:44:15;;;;;;;27.52;20.63;;;1.00;99.90;;;;;;4986175;28;20050;-72
2021/12/03 03:46:43;;;;;;;27.45;19.92;;;0.90;99.90;;;;;;4985286;28;20086;-73
2021/12/03 03:49:09;;;;;;;28.20;20.52;;;0.90;99.90;;;;;;4984876;28;21053;-72
2021/12/03 03:51:35;;;;;;;24.63;19.00;;;0.90;99.90;;;;;;4985932;28;20047;-72
2021/12/03 03:54:01;;;;;;;24.45;20.17;;;0.90;99.90;;;;;;4983094;28;20408;-72
2021/12/03 03:56:27;;;;;;;26.92;21.20;;;0.90;99.90;;;;;;4984480;28;20444;-72
2021/12/03 03:58:53;;;;;;;24.45;20.13;;;0.90;99.90;;;;;;4984023;28;20065;-72
2021/12/03 04:01:19;;;;;;;28.23;21.45;;;0.90;99.90;;;;;;4984314;28;20497;-72
2021/12/03 04:03:47;;;;;;;26.55;19.65;;;0.90;99.90;;;;;;4981872;28;20081;-72
2021/12/03 04:06:18;;;;;;;22.65;18.13;;;1.00;99.90;;;;;;4983544;28;20073;-72
2021/12/03 04:08:45;;;;;;;29.92;19.92;;;1.00;99.90;;;;;;4983457;28;20052;-72
2021/12/03 04:11:13;;;;;;;29.60;19.88;;;1.00;99.90;;;;;;4984768;28;21220;-72
2021/12/03 04:13:38;;;;;;;25.00;19.40;;;1.00;99.90;;;;;;4984103;28;20038;-72
2021/12/03 04:16:04;;;;;;;29.58;19.58;;;1.00;99.90;;;;;;4981306;28;20144;-72
2021/12/03 04:18:30;;;;;;;23.58;19.58;;;1.00;99.90;;;;;;4984789;28;20064;-72
2021/12/03 04:20:56;;;;;;;25.25;19.45;;;1.00;99.90;;;;;;4985786;28;20034;-72
2021/12/03 04:23:22;;;;;;;27.75;19.55;;;1.00;99.90;;;;;;4983229;28;20085;-71
2021/12/03 04:25:49;;;;;;;27.42;19.30;;;1.00;99.90;;;;;;4986616;28;20047;-71
2021/12/03 04:28:16;;;;;;;25.90;19.15;;;1.00;99.90;;;;;;4985256;28;20089;-72
2021/12/03 04:30:42;;;;;;;22.27;18.45;;;1.10;99.90;;;;;;4986726;28;20133;-71
2021/12/03 04:33:08;;;;;;;25.27;19.70;;;1.00;99.90;;;;;;4988218;28;20046;-72
2021/12/03 04:35:35;;;;;;;25.17;18.42;;;1.00;99.90;;;;;;4987885;28;20043;-71
2021/12/03 04:38:02;;;;;;;23.98;19.23;;;1.00;99.90;;;;;;4988353;28;20098;-72
2021/12/03 04:40:29;;;;;;;26.55;18.80;;;1.00;99.90;;;;;;4986450;28;20038;-72
2021/12/03 04:42:54;;;;;;;28.10;20.20;;;1.00;99.90;;;;;;4987605;28;20061;-72
2021/12/03 04:45:22;;;;;;;26.90;19.42;;;1.00;99.90;;;;;;4970389;28;20042;-72
2021/12/03 04:47:50;;;;;;;23.08;18.80;;;1.00;99.90;;;;;;4987908;28;20064;-72
2021/12/03 04:50:17;;;;;;;25.38;19.23;;;1.00;99.90;;;;;;4986293;28;20062;-72
2021/12/03 04:52:45;;;;;;;26.67;19.35;;;1.00;99.90;;;;;;4984621;28;20047;-72
2021/12/03 04:55:11;;;;;;;25.77;18.67;;;1.00;99.90;;;;;;4986713;28;20049;-72
2021/12/03 04:57:40;;;;;;;23.52;19.10;;;1.10;99.90;;;;;;5002653;28;20085;-72
2021/12/03 05:00:12;;;;;;;24.23;18.42;;;1.00;99.90;;;;;;4986656;28;20062;-72
2021/12/03 05:02:38;;;;;;;26.67;18.47;;;1.00;99.90;;;;;;4985834;28;20046;-72
2021/12/03 05:05:06;;;;;;;24.10;17.75;;;1.00;99.90;;;;;;4987802;28;20547;-72
2021/12/03 05:10:07;;;;;;;28.42;20.17;;;1.00;99.90;;;;;;4985635;28;20054;-72
2021/12/03 05:12:33;;;;;;;27.17;19.00;;;1.00;99.90;;;;;;5001476;28;20057;-72
2021/12/03 05:14:59;;;;;;;27.85;18.90;;;1.10;99.90;;;;;;4984689;28;20141;-72
2021/12/03 05:17:25;;;;;;;27.63;19.17;;;1.10;99.90;;;;;;4984377;28;20153;-72
2021/12/03 05:19:51;;;;;;;28.75;19.00;;;1.10;99.90;;;;;;4984169;28;20082;-72
2021/12/03 05:22:17;;;;;;;30.38;19.27;;;1.20;99.90;;;;;;4988093;28;20468;-72
2021/12/03 05:24:47;;;;;;;32.40;18.73;;;1.20;99.90;;;;;;4987659;28;20042;-72
2021/12/03 05:27:17;;;;;;;25.95;19.33;;;1.20;99.90;;;;;;4987410;28;20042;-72
2021/12/03 05:29:44;;;;;;;25.80;19.73;;;1.10;99.90;;;;;;4986118;28;20053;-71
2021/12/03 05:32:11;;;;;;;25.45;18.73;;;1.20;99.90;;;;;;4985128;28;20045;-71
2021/12/03 05:34:38;;;;;;;31.80;20.75;;;1.30;99.90;;;;;;4987825;28;20053;-71
2021/12/03 05:37:06;;;;;;;32.13;20.17;;;1.30;99.90;;;;;;4993020;28;20041;-71
2021/12/03 05:39:33;;;;;;;27.38;19.05;;;1.40;99.90;;;;;;4971494;28;20039;-72
2021/12/03 05:42:00;;;;;;;25.58;18.95;;;1.40;99.90;;;;;;4981933;28;20121;-72
2021/12/03 05:44:26;;;;;;;27.42;19.45;;;1.40;99.90;;;;;;4985969;28;20035;-72
2021/12/03 05:46:51;;;;;;;28.33;19.13;;;1.40;99.90;;;;;;4988502;28;20109;-72
2021/12/03 05:49:17;;;;;;;32.10;18.85;;;1.40;99.90;;;;;;4986093;28;20046;-72
2021/12/03 05:51:43;;;;;;;23.42;17.83;;;1.40;99.90;;;;;;4985054;28;20043;-72
2021/12/03 05:54:09;;;;;;;27.42;18.85;;;1.50;99.90;;;;;;4952402;28;20038;-72
2021/12/03 05:56:35;;;;;;;30.83;18.55;;;1.40;99.90;;;;;;4986511;28;20053;-72
2021/12/03 05:59:02;;;;;;;28.15;18.42;;;1.50;99.90;;;;;;4983837;28;20074;-72
2021/12/03 06:01:27;;;;;;;31.88;18.58;;;1.50;99.90;;;;;;5000348;28;20053;-72
2021/12/03 06:03:53;;;;;;;26.27;17.92;;;1.50;99.90;;;;;;4983747;28;20038;-72
2021/12/03 06:06:19;;;;;;;26.77;18.13;;;1.50;99.90;;;;;;4984292;28;20038;-72
2021/12/03 06:08:45;;;;;;;26.65;17.85;;;1.50;99.90;;;;;;4986129;28;20038;-72
2021/12/03 06:11:11;;;;;;;23.08;17.05;;;1.50;99.90;;;;;;4980184;28;20050;-72
2021/12/03 06:13:39;;;;;;;22.58;16.77;;;1.50;99.90;;;;;;4969027;28;20100;-72
2021/12/03 06:16:11;;;;;;;27.27;17.02;;;1.60;99.90;;;;;;5002516;28;20045;-72
2021/12/03 06:18:37;;;;;;;29.17;17.63;;;1.60;99.90;;;;;;4985661;28;20046;-72
2021/12/03 06:21:06;;;;;;;27.77;16.50;;;1.60;99.90;;;;;;4984122;28;20058;-72
2021/12/03 06:23:33;;;;;;;25.38;16.85;;;1.60;99.90;;;;;;4984888;28;20054;-72
2021/12/03 06:26:00;;;;;;;31.55;16.98;;;1.60;99.90;;;;;;4981770;28;20218;-72
2021/12/03 06:28:28;;;;;;;23.92;16.05;;;1.60;99.90;;;;;;4984852;28;20073;-72
2021/12/03 06:30:54;;;;;;;25.67;16.88;;;1.60;99.90;;;;;;4984775;28;20129;-72
2021/12/03 06:33:19;;;;;;;22.95;14.90;;;1.60;99.90;;;;;;4966907;28;20134;-72
2021/12/03 06:35:48;;;;;;;24.85;16.38;;;1.70;99.90;;;;;;4983711;28;20121;-73
2021/12/03 06:38:15;;;;;;;26.48;17.48;;;1.70;99.90;;;;;;4982459;28;20226;-73
2021/12/03 06:40:42;;;;;;;27.00;17.58;;;1.80;99.90;;;;;;4982269;28;20045;-73
2021/12/03 06:43:08;;;;;;;30.83;17.90;;;1.70;99.90;;;;;;4984824;28;20068;-74
2021/12/03 06:45:34;;;;;;;27.42;18.05;;;1.80;99.90;;;;;;4968804;28;20101;-73
2021/12/03 06:48:00;;;;;;;29.27;18.20;;;1.80;99.90;;;;;;4983602;28;20030;-74
2021/12/03 06:50:26;;;;;;;29.35;17.70;;;1.80;99.90;;;;;;4983366;28;20170;-72
2021/12/03 06:52:59;;;;;;;25.73;17.00;;;1.80;99.90;;;;;;5000460;28;20042;-73
2021/12/03 06:55:25;;;;;;;;;;;1.90;99.90;;;;;;4986629;28;20035;-71
2021/12/03 06:57:51;;;;;;;23.10;16.25;;;1.90;99.90;;;;;;4985541;28;19976;-70
2021/12/03 07:00:17;;;;;;;28.83;17.52;;;1.90;99.90;;;;;;4984754;28;20066;-73
2021/12/03 07:02:42;;;;;;;27.25;18.15;;;1.90;99.90;;;;;;4982920;28;20643;-72
2021/12/03 07:05:09;;;;;;;26.88;17.90;;;1.90;99.90;;;;;;4985665;28;20073;-73
2021/12/03 07:07:35;;;;;;;25.23;17.88;;;1.80;99.90;;;;;;4952844;28;20132;-73
2021/12/03 07:10:04;;;;;;;29.17;16.92;;;2.00;99.90;;;;;;4951165;28;20153;-73
2021/12/03 07:12:29;;;;;;;34.63;20.27;;;2.00;99.90;;;;;;4968566;28;20042;-73
2021/12/03 07:14:55;;;;;;;29.02;18.63;;;2.00;99.90;;;;;;4983094;28;20037;-75
2021/12/03 07:17:21;;;;;;;34.88;18.70;;;2.00;99.90;;;;;;4982764;28;20046;-74
2021/12/03 07:19:47;;;;;;;29.75;19.60;;;2.00;99.90;;;;;;4969436;28;20078;-75
2021/12/03 07:22:13;;;;;;;35.13;18.40;;;2.00;99.90;;;;;;5002823;28;20042;-74
2021/12/03 07:24:39;;;;;;;31.23;18.30;;;2.00;99.90;;;;;;4988719;28;20057;-75
2021/12/03 07:27:05;;;;;;;35.35;21.95;;;2.10;99.90;;;;;;4987980;28;20480;-73
2021/12/03 07:29:32;;;;;;;33.92;20.83;;;2.00;99.90;;;;;;4955327;28;20049;-74
2021/12/03 07:31:58;;;;;;;35.28;22.02;;;2.00;99.90;;;;;;4987321;28;20050;-76
2021/12/03 07:34:24;;;;;;;36.97;22.35;;;2.00;99.90;;;;;;4987678;28;20069;-74
2021/12/03 07:36:51;;;;;;;36.17;22.13;;;2.00;99.90;;;;;;4986564;28;20452;-75
2021/12/03 07:39:17;;;;;;;35.47;20.35;;;2.00;99.90;;;;;;4988626;28;20093;-74
2021/12/03 07:41:42;;;;;;;39.75;21.33;;;2.00;99.90;;;;;;4988058;28;20046;-74
2021/12/03 07:44:09;;;;;;;36.05;20.85;;;2.00;99.90;;;;;;4989656;28;20039;-75
2021/12/03 07:46:35;;;;;;;33.75;21.20;;;2.00;99.90;;;;;;4990924;28;20042;-74
2021/12/03 07:49:02;;;;;;;35.15;21.17;;;2.00;99.90;;;;;;4990073;28;20066;-74
2021/12/03 07:51:28;;;;;;;37.90;21.67;;;2.00;99.90;;;;;;4973400;28;20084;-76
2021/12/03 07:53:54;;;;;;;40.83;21.67;;;2.00;99.90;;;;;;4995653;28;21318;-75
2021/12/03 07:56:19;;;;;;;36.65;21.35;;;2.10;99.90;;;;;;4993690;28;20529;-74
2021/12/03 07:58:45;;;;;;;42.58;22.08;;;2.10;99.90;;;;;;4993143;28;20038;-74
2021/12/03 08:01:11;;;;;;;42.10;21.85;;;2.20;99.90;;;;;;4992480;28;20045;-74
2021/12/03 08:03:37;;;;;;;41.72;23.90;;;2.20;99.90;;;;;;4977256;28;20048;-74
2021/12/03 08:06:09;;;;;;;44.83;25.40;;;2.20;99.90;;;;;;4990280;28;20243;-74
2021/12/03 08:08:38;;;;;;;49.63;25.88;;;2.20;99.90;;;;;;5004837;28;20042;-74
2021/12/03 08:11:04;;;;;;;43.53;25.00;;;2.30;99.90;;;;;;4985986;28;20038;-74
2021/12/03 08:13:29;;;;;;;47.35;27.75;;;2.30;99.90;;;;;;4986709;28;20091;-74
2021/12/03 08:15:55;;;;;;;48.72;27.95;;;2.30;99.90;;;;;;4971473;28;21980;-75
2021/12/03 08:18:21;;;;;;;54.10;29.20;;;2.40;99.90;;;;;;4986040;28;20038;-75
2021/12/03 08:20:47;;;;;;;54.70;29.75;;;2.40;99.90;;;;;;4987864;28;20033;-75
2021/12/03 08:23:13;;;;;;;52.03;29.25;;;2.40;99.90;;;;;;4988540;28;20111;-74
2021/12/03 08:25:39;;;;;;;56.53;30.50;;;2.40;99.90;;;;;;4988853;28;20069;-73
2021/12/03 08:28:04;;;;;;;55.03;31.85;;;2.50;99.90;;;;;;4988123;28;20117;-74
2021/12/03 08:30:31;;;;;;;59.72;31.83;;;2.40;99.90;;;;;;5011441;28;20046;-74
2021/12/03 08:32:57;;;;;;;61.80;33.88;;;2.50;99.90;;;;;;4970631;28;20042;-75
2021/12/03 08:35:24;;;;;;;56.38;33.25;;;2.40;99.90;;;;;;4972505;28;20034;-74
2021/12/03 08:37:50;;;;;;;58.75;35.38;;;2.50;99.90;;;;;;4990920;28;20070;-75
2021/12/03 08:40:20;;;;;;;65.00;34.95;;;2.50;99.90;;;;;;4986724;28;20050;-75
2021/12/03 08:42:46;;;;;;;63.78;35.15;;;2.50;99.90;;;;;;4986819;28;20042;-75
2021/12/03 08:45:16;;;;;;;60.28;36.13;;;2.50;99.90;;;;;;4988836;28;20038;-75
2021/12/03 08:47:44;;;;;;;65.85;36.30;;;2.50;99.90;;;;;;4986880;28;20078;-74
2021/12/03 08:50:14;;;;;;;67.07;36.65;;;2.60;99.90;;;;;;4986371;28;20046;-74
2021/12/03 08:55:18;;;;;;;66.57;37.85;;;2.60;99.90;;;;;;4996766;28;20629;-74
2021/12/03 08:57:45;;;;;;;71.80;36.95;;;2.60;99.90;;;;;;4981489;28;20089;-74
2021/12/03 09:00:16;;;;;;;69.35;38.13;;;2.60;99.90;;;;;;4967245;28;20058;-74
2021/12/03 09:02:59;;;;;;;71.13;37.72;;;2.60;99.90;;;;;;4977960;28;20050;-74
2021/12/03 09:05:31;;;;;;;73.78;37.35;;;2.70;99.90;;;;;;4979392;28;20050;-74
2021/12/03 09:07:59;;;;;;;68.90;36.35;;;2.70;99.90;;;;;;4993787;28;20081;-74
2021/12/03 09:10:28;;;;;;;70.20;36.28;;;2.80;99.90;;;;;;4990382;28;20416;-74
2021/12/03 09:12:54;;;;;;;69.63;36.10;;;2.70;99.90;;;;;;4967512;28;20046;-74
2021/12/03 09:15:31;;;;;;;70.55;35.40;;;2.70;99.90;;;;;;4995247;28;20065;-74
2021/12/03 09:18:21;;;;;;;68.90;36.28;;;2.70;99.90;;;;;;4948327;28;20512;-74
2021/12/03 09:24:34;;;;;;;67.07;33.97;;;2.80;99.90;;;;;;4984098;28;20054;-74
2021/12/03 09:26:27;;;;;;;67.13;35.72;;;2.80;99.90;;;;;;4972177;28;20082;-74
2021/12/03 09:29:06;;;;;;;66.00;34.35;;;2.80;99.90;;;;;;4983251;28;20038;-75
2021/12/03 09:31:36;;;;;;;69.50;34.65;;;2.90;99.90;;;;;;4966112;28;20042;-75
2021/12/03 09:34:09;;;;;;;63.60;33.50;;;2.90;99.90;;;;;;4985889;28;20500;-74
2021/12/03 09:36:41;;;;;;;65.65;33.40;;;2.90;99.90;;;;;;4990242;28;20042;-75
2021/12/03 09:39:09;;;;;;;57.50;31.33;;;3.00;99.90;;;;;;4990482;28;20034;-75
2021/12/03 09:41:35;;;;;;;58.38;30.95;;;3.00;99.90;;;;;;4979681;28;20038;-75
2021/12/03 09:44:01;;;;;;;64.68;30.00;;;3.00;99.90;;;;;;4981207;28;20052;-75
2021/12/03 09:46:27;;;;;;;61.78;29.42;;;3.10;99.90;;;;;;4984558;28;20058;-75
2021/12/03 09:51:38;;;;;;;53.88;28.05;;;3.20;99.90;;;;;;4985450;28;20061;-75
2021/12/03 09:56:33;;;;;;;58.25;28.52;;;3.30;99.90;;;;;;4989467;28;20050;-75
2021/12/03 10:08:17;;;;;;;46.50;22.35;;;3.40;99.90;;;;;;4980654;28;20059;-75
2021/12/03 10:13:08;;;;;;;41.75;20.13;;;3.50;99.90;;;;;;4987514;28;20050;-75
2021/12/03 10:29:15;;;;;;;30.20;12.73;;;3.70;99.90;;;;;;4976326;28;20042;-74
2021/12/03 10:36:56;;;;;;;31.23;10.18;;;3.70;99.90;;;;;;4990950;28;20137;-75
2021/12/03 10:42:12;;;;;;;34.33;11.23;;;3.70;99.90;;;;;;4986468;28;20509;-75
2021/12/03 10:48:42;;;;;;;25.83;9.30;;;3.70;99.90;;;;;;4983898;28;20535;-74
2021/12/03 11:02:07;;;;;;;30.10;8.30;;;3.80;99.90;;;;;;4985567;28;20051;-75
2021/12/03 11:44:53;;;;;;;16.02;5.03;;;3.90;99.90;;;;;;4982919;28;20081;-75
2021/12/03 12:33:59;;;;;;;12.77;6.75;;;3.50;99.90;;;;;;4983057;28;20467;-72
2021/12/03 12:58:15;;;;;;;17.23;7.40;;;3.70;99.90;;;;;;4987973;28;20068;-73
2021/12/03 13:16:44;;;;;;;12.95;6.60;;;3.80;99.90;;;;;;4985060;28;20108;-72
2021/12/03 13:28:37;;;;;;;19.15;7.75;;;3.90;99.90;;;;;;4985563;28;20046;-73
2021/12/03 13:45:16;;;;;;;13.57;6.30;;;4.10;99.90;;;;;;4984984;28;20123;-74
2021/12/03 14:00:58;;;;;;;14.02;5.72;;;4.20;99.90;;;;;;4986063;28;20117;-73
2021/12/03 14:39:07;;;;;;;16.20;6.18;;;4.50;99.90;;;;;;4981699;28;20046;-74
2021/12/03 14:44:51;;;;;;;14.63;6.43;;;4.50;99.90;;;;;;4985698;28;20129;-75
2021/12/03 14:55:38;;;;;;;11.55;6.15;;;4.70;99.90;;;;;;4990837;28;20116;-74
2021/12/03 14:58:10;;;;;;;11.50;5.82;;;4.60;99.90;;;;;;4989595;28;20042;-73
2021/12/03 15:00:48;;;;;;;12.20;6.60;;;4.60;99.90;;;;;;4971163;28;20040;-74
2021/12/03 15:06:21;;;;;;;12.10;6.15;;;4.60;99.90;;;;;;4991937;28;20134;-73
2021/12/03 15:08:53;;;;;;;11.00;6.60;;;4.60;99.90;;;;;;4988868;28;20042;-73
2021/12/03 15:37:52;;;;;;;12.75;6.95;;;4.60;99.90;;;;;;4998551;28;20077;-73
2021/12/03 15:40:39;;;;;;;14.02;7.15;;;4.60;99.90;;;;;;4997766;28;20042;-73
2021/12/03 15:56:57;;;;;;;11.20;7.80;;;4.60;99.90;;;;;;4971479;28;20121;-74
2021/12/03 16:05:01;;;;;;;13.45;8.10;;;4.60;99.90;;;;;;4988507;28;20621;-74
2021/12/03 16:15:34;;;;;;;15.30;9.18;;;4.60;99.90;;;;;;4985213;28;20062;-75
2021/12/03 16:23:11;;;;;;;12.15;9.50;;;4.70;99.90;;;;;;4986804;28;20086;-74
2021/12/03 16:25:54;;;;;;;18.98;9.98;;;4.70;99.90;;;;;;4985681;28;20100;-75
2021/12/03 16:47:39;;;;;;;14.85;10.90;;;4.70;99.90;;;;;;4986916;28;20064;-75
2021/12/03 16:52:45;;;;;;;13.63;12.10;;;4.70;99.90;;;;;;4984049;28;20046;-75
2021/12/03 16:55:11;;;;;;;13.75;12.02;;;4.70;99.90;;;;;;4987026;28;20058;-74
2021/12/03 16:57:37;;;;;;;14.13;12.25;;;4.70;99.90;;;;;;4986315;28;20111;-74
2021/12/03 17:00:37;;;;;;;14.20;12.70;;;4.60;99.90;;;;;;4994167;28;20041;-74
2021/12/03 17:03:25;;;;;;;15.95;14.20;;;4.70;99.90;;;;;;4974309;28;20612;-74
2021/12/03 17:08:54;;;;;;;15.15;13.57;;;4.70;99.90;;;;;;4977048;28;20045;-74
2021/12/03 17:48:43;;;;;;;23.33;20.83;;;4.70;99.90;;;;;;4989523;28;20038;-74
2021/12/03 17:56:19;;;;;;;23.98;20.95;;;4.60;99.90;;;;;;4988755;28;20101;-74
2021/12/03 17:58:52;;;;;;;24.63;21.48;;;4.60;99.90;;;;;;5003868;28;20042;-74
2021/12/03 18:01:22;;;;;;;26.23;22.52;;;4.60;99.90;;;;;;4987158;28;20097;-74
2021/12/03 18:03:53;;;;;;;26.90;22.65;;;4.60;99.90;;;;;;4989997;28;20040;-74
2021/12/03 18:17:07;;;;;;;30.10;25.15;;;4.60;99.90;;;;;;4985176;28;20493;-75
2021/12/03 18:52:51;;;;;;;35.00;26.73;;;4.80;99.90;;;;;;4975372;28;20050;-74
2021/12/03 18:55:30;;;;;;;37.25;26.42;;;4.70;99.90;;;;;;4981864;28;20069;-74
2021/12/03 18:58:08;;;;;;;36.67;28.13;;;4.70;99.90;;;;;;4961931;28;20035;-75
2021/12/03 19:00:41;;;;;;;37.00;29.17;;;4.70;99.90;;;;;;4950251;28;20061;-74
2021/12/03 19:03:22;;;;;;;36.75;28.63;;;4.70;99.90;;;;;;4949937;28;20046;-74
2021/12/03 19:08:38;;;;;;;37.55;28.23;;;4.80;99.90;;;;;;4975434;28;20050;-74
2021/12/03 19:11:13;;;;;;;39.58;30.30;;;4.70;99.90;;;;;;4940325;28;20042;-74
2021/12/03 19:13:40;;;;;;;43.10;29.52;;;4.70;99.90;;;;;;4961968;28;20051;-76
2021/12/03 19:16:10;;;;;;;38.95;30.27;;;4.70;99.90;;;;;;4949882;28;20502;-74
2021/12/03 19:18:37;;;;;;;39.83;29.40;;;4.70;99.90;;;;;;4964300;28;20290;-74
2021/12/03 19:21:08;;;;;;;38.08;29.48;;;4.70;99.90;;;;;;4969112;28;20038;-73
2021/12/03 19:23:35;;;;;;;39.42;29.17;;;4.80;99.90;;;;;;4969724;28;20047;-74
2021/12/03 19:26:01;;;;;;;42.83;29.33;;;4.80;99.90;;;;;;4954883;28;20043;-74
2021/12/03 19:28:27;;;;;;;36.75;27.58;;;4.80;99.90;;;;;;4962520;28;20743;-74
2021/12/03 19:30:56;;;;;;;38.33;29.20;;;4.80;99.90;;;;;;4945311;28;20043;-74
2021/12/03 19:33:23;;;;;;;40.17;29.88;;;4.80;99.90;;;;;;4961516;28;20109;-74
2021/12/03 19:35:49;;;;;;;36.28;27.90;;;4.80;99.90;;;;;;4932043;28;20039;-74
2021/12/03 19:38:17;;;;;;;39.20;29.52;;;4.80;99.90;;;;;;4950008;28;20038;-75
2021/12/03 19:41:02;;;;;;;39.22;28.10;;;4.80;99.90;;;;;;4957224;28;20061;-75
2021/12/03 19:43:35;;;;;;;37.45;28.92;;;4.80;99.90;;;;;;4960715;28;20038;-75
2021/12/03 19:46:14;;;;;;;39.17;28.45;;;4.80;99.90;;;;;;4925816;28;20387;-75
2021/12/03 19:48:50;;;;;;;37.83;27.42;;;4.80;99.90;;;;;;4967594;28;20109;-76
2021/12/03 19:51:21;;;;;;;39.33;28.23;;;4.80;99.90;;;;;;4957280;28;20043;-74
2021/12/03 19:54:48;;;;;;;37.35;28.48;;;4.80;99.90;;;;;;4962249;28;20046;-75
2021/12/03 19:57:34;;;;;;;36.50;27.60;;;4.80;99.90;;;;;;4956237;28;20049;-75
2021/12/03 20:00:30;;;;;;;35.60;27.05;;;4.80;99.90;;;;;;4954409;28;20051;-74
2021/12/03 20:02:56;;;;;;;39.72;27.77;;;4.80;99.90;;;;;;4930193;28;20405;-74
2021/12/03 20:05:22;;;;;;;42.90;28.88;;;4.80;99.90;;;;;;4953620;28;20046;-74
2021/12/03 20:07:48;;;;;;;38.08;27.85;;;4.80;99.90;;;;;;4949436;28;20039;-74
2021/12/03 20:10:16;;;;;;;42.53;29.40;;;4.80;99.90;;;;;;4949347;28;20050;-74